createdAt,value
2018-09-27T00:01:41.591Z,96992.69
2018-09-27T00:04:10.311Z,96985.84
2018-09-27T00:06:38.958Z,96990.58
2018-09-27T00:09:08.482Z,96994.13
2018-09-27T00:11:37.224Z,96989.41
2018-09-27T00:14:05.857Z,96996.91
2018-09-27T00:16:34.521Z,97002.63
2018-09-27T00:19:03.268Z,97004.02
2018-09-27T00:21:32.024Z,97001.12
2018-09-27T00:24:00.692Z,96994.15
2018-09-27T00:26:29.318Z,96987.46
2018-09-27T00:28:58.111Z,96982.65
2018-09-27T00:31:26.813Z,96982.52
2018-09-27T00:33:55.465Z,96973.47
2018-09-27T00:36:24.105Z,96974.25
2018-09-27T00:38:52.840Z,96970.74
2018-09-27T00:41:21.519Z,96963.75
2018-09-27T00:43:50.166Z,96965.75
2018-09-27T00:46:18.937Z,96948.02
2018-09-27T00:48:47.631Z,96947.13
2018-09-27T00:51:16.324Z,96947.80
2018-09-27T00:53:45.061Z,96952.71
2018-09-27T00:56:13.696Z,96945.84
2018-09-27T00:58:42.504Z,96944.03
2018-09-27T01:01:11.236Z,96940.27
2018-09-27T01:03:39.885Z,96941.98
2018-09-27T01:06:08.583Z,96937.92
2018-09-27T01:08:37.301Z,96929.09
2018-09-27T01:11:06.041Z,96928.27
2018-09-27T01:13:34.732Z,96928.69
2018-09-27T01:16:03.482Z,96928.02
2018-09-27T01:18:32.205Z,96931.23
2018-09-27T01:21:00.919Z,96932.14
2018-09-27T01:23:29.603Z,96939.48
2018-09-27T01:25:58.243Z,96927.70
2018-09-27T01:28:27.048Z,96925.41
2018-09-27T01:30:55.723Z,96928.02
2018-09-27T01:33:24.435Z,96925.35
2018-09-27T01:35:53.268Z,96934.94
2018-09-27T01:38:21.988Z,96924.42
2018-09-27T01:40:50.656Z,96927.62
2018-09-27T01:43:19.458Z,96938.52
2018-09-27T01:45:48.233Z,96916.22
2018-09-27T01:48:16.970Z,96918.70
2018-09-27T01:50:45.660Z,96922.96
2018-09-27T01:53:14.376Z,96919.45
2018-09-27T01:55:43.136Z,96914.92
2018-09-27T01:58:11.842Z,96677.20
2018-09-27T02:00:40.652Z,96916.23
2018-09-27T02:03:09.458Z,96912.09
2018-09-27T02:05:38.212Z,96910.58
2018-09-27T02:08:07.017Z,96915.38
2018-09-27T02:10:35.782Z,96920.64
2018-09-27T02:13:04.532Z,96908.61
2018-09-27T02:15:33.213Z,96914.99
2018-09-27T02:18:01.925Z,96908.41
2018-09-27T02:20:30.635Z,96904.55
2018-09-27T02:22:59.405Z,96898.63
2018-09-27T02:25:28.146Z,96902.19
2018-09-27T02:27:56.936Z,96898.75
2018-09-27T02:30:25.662Z,96902.22
2018-09-27T02:32:54.387Z,96889.73
2018-09-27T02:35:23.100Z,96883.85
2018-09-27T02:37:51.846Z,96680.45
2018-09-27T02:40:20.504Z,96884.50
2018-09-27T02:42:49.184Z,96885.31
2018-09-27T02:45:17.929Z,96887.68
2018-09-27T02:47:46.736Z,96889.05
2018-09-27T02:50:15.413Z,96889.31
2018-09-27T02:52:44.176Z,96882.09
2018-09-27T02:55:13.044Z,96883.08
2018-09-27T02:57:41.728Z,96878.85
2018-09-27T03:00:10.509Z,96882.27
2018-09-27T03:02:39.155Z,96879.84
2018-09-27T03:05:08.120Z,96879.51
2018-09-27T03:07:37.008Z,96878.68
2018-09-27T03:10:06.006Z,96876.63
2018-09-27T03:12:34.716Z,96875.81
2018-09-27T03:15:03.476Z,96874.44
2018-09-27T03:17:32.128Z,96874.17
2018-09-27T03:20:00.809Z,96883.00
2018-09-27T03:22:29.624Z,96885.52
2018-09-27T03:24:58.333Z,96878.89
2018-09-27T03:27:27.108Z,96881.91
2018-09-27T03:29:55.786Z,96885.62
2018-09-27T03:32:24.457Z,96883.50
2018-09-27T03:34:53.141Z,96890.03
2018-09-27T03:37:21.779Z,96882.94
2018-09-27T03:39:50.539Z,96889.22
2018-09-27T03:42:19.205Z,96868.29
2018-09-27T03:44:47.904Z,96885.91
2018-09-27T03:47:16.543Z,96676.22
2018-09-27T03:49:45.226Z,96882.27
2018-09-27T03:52:13.990Z,96888.88
2018-09-27T03:54:42.796Z,96892.61
2018-09-27T03:57:11.499Z,96878.34
2018-09-27T03:59:40.250Z,96885.21
2018-09-27T04:02:08.909Z,96888.84
2018-09-27T04:04:37.663Z,96877.97
2018-09-27T04:07:06.348Z,96882.17
2018-09-27T04:09:35.095Z,96882.20
2018-09-27T04:12:04.533Z,96889.34
2018-09-27T04:14:34.373Z,96892.19
2018-09-27T04:17:03.120Z,96892.36
2018-09-27T04:19:31.806Z,96859.70
2018-09-27T04:22:00.568Z,96893.59
2018-09-27T04:24:29.336Z,96896.86
2018-09-27T04:26:58.092Z,96884.66
2018-09-27T04:29:26.820Z,96879.43
2018-09-27T04:31:55.464Z,96884.16
2018-09-27T04:34:24.218Z,96876.76
2018-09-27T04:36:52.954Z,96887.65
2018-09-27T04:39:21.652Z,96880.02
2018-09-27T04:41:50.335Z,96877.73
2018-09-27T04:44:19.055Z,96874.69
2018-09-27T04:46:47.758Z,96886.24
2018-09-27T04:49:16.428Z,96889.85
2018-09-27T04:51:45.156Z,96880.95
2018-09-27T04:54:13.862Z,96885.03
2018-09-27T04:56:42.504Z,96879.58
2018-09-27T04:59:11.249Z,96886.05
2018-09-27T05:01:40.001Z,96880.70
2018-09-27T05:04:08.993Z,96876.13
2018-09-27T05:06:37.685Z,96888.80
2018-09-27T05:09:07.635Z,96885.88
2018-09-27T05:11:36.296Z,96871.13
2018-09-27T05:14:05.108Z,96869.22
2018-09-27T05:16:33.805Z,96877.23
2018-09-27T05:19:02.617Z,96882.55
2018-09-27T05:21:31.451Z,96877.67
2018-09-27T05:24:00.249Z,96876.84
2018-09-27T05:26:28.983Z,96875.73
2018-09-27T05:28:57.749Z,96885.88
2018-09-27T05:31:26.506Z,96878.29
2018-09-27T05:33:55.197Z,96879.23
2018-09-27T05:36:23.990Z,96887.97
2018-09-27T05:38:52.813Z,96887.83
2018-09-27T05:41:21.523Z,96879.78
2018-09-27T05:43:50.235Z,96884.41
2018-09-27T05:46:18.899Z,96883.59
2018-09-27T05:48:47.600Z,96885.52
2018-09-27T05:51:16.373Z,96891.14
2018-09-27T05:53:45.083Z,96888.05
2018-09-27T05:56:13.728Z,96892.50
2018-09-27T05:58:42.410Z,96892.47
2018-09-27T06:01:11.160Z,96892.20
2018-09-27T06:03:39.941Z,96892.20
2018-09-27T06:06:08.735Z,96897.16
2018-09-27T06:08:37.418Z,96889.83
2018-09-27T06:11:06.205Z,96899.34
2018-09-27T06:13:34.970Z,96890.56
2018-09-27T06:16:03.865Z,96891.97
2018-09-27T06:18:32.585Z,96904.04
2018-09-27T06:21:01.463Z,96903.94
2018-09-27T06:23:30.123Z,96896.10
2018-09-27T06:25:59.081Z,96897.61
2018-09-27T06:28:27.796Z,96895.72
2018-09-27T06:30:56.521Z,96896.14
2018-09-27T06:33:25.285Z,96897.47
2018-09-27T06:35:53.993Z,96895.77
2018-09-27T06:38:22.624Z,96896.30
2018-09-27T06:40:51.348Z,96897.05
2018-09-27T06:43:20.105Z,96898.64
2018-09-27T06:45:48.788Z,96897.79
2018-09-27T06:48:17.536Z,96896.30
2018-09-27T06:50:46.216Z,96896.02
2018-09-27T06:53:14.913Z,96904.41
2018-09-27T06:55:43.660Z,96892.98
2018-09-27T06:58:12.318Z,96901.84
2018-09-27T07:00:41.063Z,96901.00
2018-09-27T07:03:09.779Z,96896.50
2018-09-27T07:05:38.521Z,96897.05
2018-09-27T07:08:07.268Z,96904.83
2018-09-27T07:10:35.997Z,96893.65
2018-09-27T07:13:04.806Z,96891.45
2018-09-27T07:15:33.598Z,96894.02
2018-09-27T07:18:03.676Z,96889.91
2018-09-27T07:20:32.421Z,96871.47
2018-09-27T07:23:01.300Z,96873.00
2018-09-27T07:25:29.978Z,96881.92
2018-09-27T07:27:59.209Z,96879.16
2018-09-27T07:30:27.950Z,96879.89
2018-09-27T07:32:56.646Z,96867.36
2018-09-27T07:35:25.327Z,96872.41
2018-09-27T07:37:54.255Z,96862.52
2018-09-27T07:40:23.094Z,96863.98
2018-09-27T07:42:51.828Z,96868.36
2018-09-27T07:45:20.425Z,96866.91
2018-09-27T07:47:49.090Z,96866.02
2018-09-27T07:50:17.796Z,96875.54
2018-09-27T07:52:46.509Z,96862.92
2018-09-27T07:55:15.144Z,96861.80
2018-09-27T07:57:43.829Z,96864.96
2018-09-27T08:00:14.849Z,96863.68
2018-09-27T08:02:43.729Z,96850.52
2018-09-27T08:05:12.323Z,96853.03
2018-09-27T08:07:40.980Z,96850.21
2018-09-27T08:10:09.329Z,96838.23
2018-09-27T08:12:37.959Z,96833.55
2018-09-27T08:15:06.686Z,96844.28
2018-09-27T08:17:35.447Z,96834.03
2018-09-27T08:20:04.460Z,96833.55
2018-09-27T08:22:33.327Z,96840.05
2018-09-27T08:25:01.967Z,96834.55
2018-09-27T08:27:30.622Z,96836.81
2018-09-27T08:29:59.360Z,96824.41
2018-09-27T08:32:28.036Z,96823.33
2018-09-27T08:34:56.793Z,96832.50
2018-09-27T08:37:25.502Z,96823.34
2018-09-27T08:39:54.218Z,96828.33
2018-09-27T08:42:22.932Z,96821.81
2018-09-27T08:44:51.760Z,96813.43
2018-09-27T08:47:20.405Z,96811.22
2018-09-27T08:49:49.191Z,96808.14
2018-09-27T08:52:17.969Z,96799.12
2018-09-27T08:54:46.870Z,96798.80
2018-09-27T08:57:15.872Z,96796.38
2018-09-27T08:59:44.643Z,96760.71
2018-09-27T09:02:13.332Z,96786.83
2018-09-27T09:04:42.094Z,96794.95
2018-09-27T09:07:10.965Z,96790.13
2018-09-27T09:09:39.757Z,96786.03
2018-09-27T09:12:09.369Z,96785.84
2018-09-27T09:14:38.119Z,96796.03
2018-09-27T09:17:06.905Z,96784.87
2018-09-27T09:19:35.603Z,96773.02
2018-09-27T09:22:04.286Z,96772.50
2018-09-27T09:24:33.014Z,96765.78
2018-09-27T09:27:01.844Z,96759.93
2018-09-27T09:29:30.636Z,96751.13
2018-09-27T09:31:59.413Z,96747.71
2018-09-27T09:34:28.172Z,96743.10
2018-09-27T09:36:56.865Z,96736.16
2018-09-27T09:39:25.596Z,96736.73
2018-09-27T09:41:54.425Z,96744.48
2018-09-27T09:44:23.252Z,96740.44
2018-09-27T09:46:52.097Z,96735.03
2018-09-27T09:49:20.757Z,96731.32
2018-09-27T09:51:52.580Z,96734.95
2018-09-27T09:54:21.226Z,96724.00
2018-09-27T09:56:49.930Z,96719.05
2018-09-27T09:59:18.587Z,96723.94
2018-09-27T10:01:47.401Z,96713.52
2018-09-27T10:04:16.100Z,96718.69
2018-09-27T10:06:44.808Z,96713.00
2018-09-27T10:09:13.565Z,96704.66
2018-09-27T10:11:42.353Z,96710.41
2018-09-27T10:14:10.996Z,96709.04
2018-09-27T10:16:39.666Z,96714.40
2018-09-27T10:19:08.433Z,96696.05
2018-09-27T10:21:37.175Z,96690.11
2018-09-27T10:24:05.908Z,96690.50
2018-09-27T10:26:34.627Z,96693.08
2018-09-27T10:29:03.339Z,96685.36
2018-09-27T10:31:32.021Z,96696.47
2018-09-27T10:34:00.734Z,96687.63
2018-09-27T10:36:29.412Z,96699.30
2018-09-27T10:38:58.145Z,96682.10
2018-09-27T10:41:26.809Z,96677.68
2018-09-27T10:43:55.439Z,96669.70
2018-09-27T10:46:24.227Z,96660.99
2018-09-27T10:48:52.961Z,96662.56
2018-09-27T10:51:21.750Z,96659.55
2018-09-27T10:53:50.416Z,96653.26
2018-09-27T10:56:19.180Z,96648.11
2018-09-27T10:58:47.953Z,96644.14
2018-09-27T11:01:16.728Z,96651.83
2018-09-27T11:03:45.511Z,96641.15
2018-09-27T11:06:14.171Z,96636.44
2018-09-27T11:08:44.726Z,96621.44
2018-09-27T11:11:16.310Z,96622.94
2018-09-27T11:13:45.035Z,96617.15
2018-09-27T11:16:13.781Z,96608.97
2018-09-27T11:18:42.535Z,96615.53
2018-09-27T11:21:11.302Z,96608.03
2018-09-27T11:23:40.116Z,96601.05
2018-09-27T11:26:08.928Z,96604.48
2018-09-27T11:28:43.020Z,96601.70
2018-09-27T11:31:16.928Z,96606.80
2018-09-27T11:33:45.656Z,96598.14
2018-09-27T11:36:14.491Z,96590.39
2018-09-27T11:38:43.292Z,96586.86
2018-09-27T11:41:11.945Z,96578.47
2018-09-27T11:43:40.641Z,96577.39
2018-09-27T11:46:09.508Z,96574.97
2018-09-27T11:48:38.344Z,96561.83
2018-09-27T11:51:07.070Z,96547.44
2018-09-27T11:53:35.781Z,96554.56
2018-09-27T11:56:04.578Z,96559.30
2018-09-27T11:58:33.366Z,96557.59
2018-09-27T12:01:02.198Z,96558.28
2018-09-27T12:03:30.857Z,96563.67
2018-09-27T12:05:59.606Z,96543.63
2018-09-27T12:08:28.176Z,96542.52
2018-09-27T12:10:56.924Z,96538.56
2018-09-27T12:13:25.859Z,96547.70
2018-09-27T12:15:54.693Z,96532.94
2018-09-27T12:18:23.506Z,96530.33
2018-09-27T12:20:52.288Z,96524.77
2018-09-27T12:23:20.982Z,96518.02
2018-09-27T12:25:49.618Z,96516.34
2018-09-27T12:28:18.570Z,96503.95
2018-09-27T12:30:47.403Z,96500.26
2018-09-27T12:33:16.109Z,96505.30
2018-09-27T12:35:44.901Z,96501.44
2018-09-27T12:38:13.607Z,96499.98
2018-09-27T12:40:42.460Z,96499.78
2018-09-27T12:43:11.218Z,96492.22
2018-09-27T12:45:40.120Z,96487.70
2018-09-27T12:48:08.842Z,96477.34
2018-09-27T12:50:38.339Z,96480.55
2018-09-27T12:53:07.197Z,96482.31
2018-09-27T12:55:36.445Z,96472.45
2018-09-27T12:58:05.170Z,96472.41
2018-09-27T13:00:33.916Z,96462.92
2018-09-27T13:03:02.786Z,96461.73
2018-09-27T13:05:31.443Z,96455.15
2018-09-27T13:08:00.204Z,96450.69
2018-09-27T13:10:28.860Z,96454.77
2018-09-27T13:12:57.736Z,96444.30
2018-09-27T13:15:26.533Z,96446.83
2018-09-27T13:17:55.304Z,96444.93
2018-09-27T13:20:24.085Z,96439.31
2018-09-27T13:22:52.846Z,96432.67
2018-09-27T13:25:21.660Z,96436.66
2018-09-27T13:27:50.384Z,96430.51
2018-09-27T13:30:19.186Z,96430.20
2018-09-27T13:32:47.839Z,96434.37
2018-09-27T13:35:16.666Z,96430.61
2018-09-27T13:37:45.370Z,96433.62
2018-09-27T13:40:14.045Z,96432.89
2018-09-27T13:42:42.721Z,96444.30
2018-09-27T13:45:11.464Z,96437.98
2018-09-27T13:47:40.200Z,96436.83
2018-09-27T13:50:08.987Z,96442.52
2018-09-27T13:52:37.806Z,96432.68
2018-09-27T13:55:06.833Z,96431.08
2018-09-27T13:57:35.517Z,96431.32
2018-09-27T14:00:05.666Z,96395.84
2018-09-27T14:02:34.321Z,96431.23
2018-09-27T14:05:03.028Z,96428.98
2018-09-27T14:07:31.740Z,96420.96
2018-09-27T14:10:00.383Z,96418.21
2018-09-27T14:12:29.873Z,96425.59
2018-09-27T14:14:58.545Z,96425.27
2018-09-27T14:17:27.302Z,96422.44
2018-09-27T14:19:56.105Z,96424.35
2018-09-27T14:22:24.957Z,96415.95
2018-09-27T14:24:53.631Z,96415.04
2018-09-27T14:27:22.376Z,96412.83
2018-09-27T14:29:51.008Z,96412.88
2018-09-27T14:32:19.745Z,96403.69
2018-09-27T14:34:48.478Z,96402.69
2018-09-27T14:37:17.311Z,96401.32
2018-09-27T14:39:45.990Z,96399.23
2018-09-27T14:42:14.732Z,96405.50
2018-09-27T14:44:43.516Z,96405.50
2018-09-27T14:47:12.289Z,96395.31
2018-09-27T14:49:40.951Z,96400.16
2018-09-27T14:52:09.641Z,96404.84
2018-09-27T14:54:38.412Z,96404.84
2018-09-27T14:57:07.261Z,96405.60
2018-09-27T14:59:37.040Z,96400.19
2018-09-27T15:02:05.843Z,96407.22
2018-09-27T15:04:34.639Z,96402.55
2018-09-27T15:07:03.312Z,96402.78
2018-09-27T15:09:32.134Z,96394.05
2018-09-27T15:12:01.022Z,96387.80
2018-09-27T15:14:29.855Z,96391.09
2018-09-27T15:16:58.598Z,96389.17
2018-09-27T15:19:27.333Z,96395.52
2018-09-27T15:21:56.029Z,96395.27
2018-09-27T15:24:24.701Z,96401.84
2018-09-27T15:26:53.409Z,96211.09
2018-09-27T15:29:22.077Z,96394.54
2018-09-27T15:31:50.993Z,96404.75
2018-09-27T15:34:19.901Z,96394.30
2018-09-27T15:36:48.604Z,96395.30
2018-09-27T15:39:17.783Z,96390.63
2018-09-27T15:41:46.502Z,96396.11
2018-09-27T15:44:15.219Z,96390.73
2018-09-27T15:46:44.031Z,96392.38
2018-09-27T15:49:12.828Z,96386.89
2018-09-27T15:51:41.658Z,96391.77
2018-09-27T15:54:10.397Z,96387.54
2018-09-27T15:56:39.214Z,96382.75
2018-09-27T15:59:07.904Z,96383.39
2018-09-27T16:01:36.637Z,96387.41
2018-09-27T16:04:05.369Z,96383.28
2018-09-27T16:06:34.107Z,96395.48
2018-09-27T16:09:02.933Z,96341.47
2018-09-27T16:11:31.628Z,96398.59
2018-09-27T16:14:00.280Z,96396.84
2018-09-27T16:16:29.009Z,96396.56
2018-09-27T16:18:57.810Z,96387.05
2018-09-27T16:21:40.965Z,96383.38
2018-09-27T16:24:09.785Z,96381.21
2018-09-27T16:26:38.477Z,96382.33
2018-09-27T16:29:07.453Z,96381.14
2018-09-27T16:31:36.321Z,96378.27
2018-09-27T16:34:05.918Z,96379.03
2018-09-27T16:36:34.836Z,96384.24
2018-09-27T16:39:04.753Z,96377.80
2018-09-27T16:41:33.465Z,96386.73
2018-09-27T16:44:02.202Z,96382.70
2018-09-27T16:46:31.009Z,96381.98
2018-09-27T16:48:59.792Z,96377.20
2018-09-27T16:51:28.532Z,96380.73
2018-09-27T16:53:57.233Z,96382.97
2018-09-27T16:56:25.962Z,96376.41
2018-09-27T16:58:54.646Z,96378.95
2018-09-27T17:01:23.302Z,96376.25
2018-09-27T17:03:51.974Z,96375.30
2018-09-27T17:06:20.698Z,96373.08
2018-09-27T17:08:49.390Z,96369.88
2018-09-27T17:11:18.057Z,96372.05
2018-09-27T17:13:47.262Z,96365.83
2018-09-27T17:16:15.950Z,96361.59
2018-09-27T17:18:44.671Z,96373.52
2018-09-27T17:21:13.368Z,96370.48
2018-09-27T17:23:42.120Z,96375.27
2018-09-27T17:26:10.802Z,96379.22
2018-09-27T17:28:39.536Z,96393.14
2018-09-27T17:31:08.617Z,96393.83
2018-09-27T17:33:37.255Z,96396.92
2018-09-27T17:36:06.014Z,96400.70
2018-09-27T17:38:34.761Z,96400.19
2018-09-27T17:41:03.478Z,96402.80
2018-09-27T17:43:32.277Z,96397.59
2018-09-27T17:46:01.003Z,96403.44
2018-09-27T17:48:29.632Z,96406.05
2018-09-27T17:50:58.349Z,96410.24
2018-09-27T17:53:27.085Z,96408.67
2018-09-27T17:55:55.707Z,96413.69
2018-09-27T17:58:24.433Z,96412.29
2018-09-27T18:00:53.193Z,96409.45
2018-09-27T18:03:22.026Z,96413.96
2018-09-27T18:05:50.810Z,96404.29
2018-09-27T18:08:19.525Z,96406.77
2018-09-27T18:10:48.269Z,96404.39
2018-09-27T18:13:17.051Z,96398.53
2018-09-27T18:15:46.084Z,96394.53
2018-09-27T18:18:14.838Z,96397.19
2018-09-27T18:20:43.520Z,96402.66
2018-09-27T18:23:12.386Z,96405.30
2018-09-27T18:25:41.471Z,96400.77
2018-09-27T18:28:10.531Z,96410.56
2018-09-27T18:30:39.315Z,96415.95
2018-09-27T18:33:08.048Z,96409.44
2018-09-27T18:35:36.753Z,96411.30
2018-09-27T18:38:05.634Z,96406.73
2018-09-27T18:40:34.370Z,96415.15
2018-09-27T18:43:03.238Z,96418.22
2018-09-27T18:45:32.188Z,96421.25
2018-09-27T18:48:02.041Z,96421.94
2018-09-27T18:50:30.803Z,96426.75
2018-09-27T18:52:59.567Z,96429.53
2018-09-27T18:55:28.311Z,96426.34
2018-09-27T18:57:57.022Z,96441.48
2018-09-27T19:00:27.195Z,96436.45
2018-09-27T19:02:55.972Z,96430.52
2018-09-27T19:05:24.745Z,96436.50
2018-09-27T19:07:54.171Z,96424.73
2018-09-27T19:10:22.900Z,96425.58
2018-09-27T19:12:51.723Z,96423.20
2018-09-27T19:15:20.712Z,96422.20
2018-09-27T19:17:49.954Z,96423.70
2018-09-27T19:20:18.659Z,96420.29
2018-09-27T19:22:47.485Z,96417.55
2018-09-27T19:25:16.201Z,96417.19
2018-09-27T19:27:45.050Z,96422.39
2018-09-27T19:30:15.137Z,96426.13
2018-09-27T19:32:43.835Z,96419.94
2018-09-27T19:35:12.624Z,96426.63
2018-09-27T19:37:41.449Z,95888.19
2018-09-27T19:40:10.212Z,96421.28
2018-09-27T19:42:38.922Z,96421.05
2018-09-27T19:45:07.712Z,96418.34
2018-09-27T19:47:36.551Z,96425.45
2018-09-27T19:50:06.213Z,96425.44
2018-09-27T19:52:35.277Z,96416.88
2018-09-27T19:55:04.004Z,96423.77
2018-09-27T19:57:32.805Z,96423.00
2018-09-27T20:00:01.516Z,96420.98
2018-09-27T20:02:30.342Z,96426.22
2018-09-27T20:04:59.141Z,96425.73
2018-09-27T20:07:27.793Z,96427.41
2018-09-27T20:09:56.513Z,96426.75
2018-09-27T20:12:25.574Z,96423.61
2018-09-27T20:14:54.219Z,96418.19
2018-09-27T20:17:22.927Z,96416.78
2018-09-27T20:19:51.669Z,96414.20
2018-09-27T20:22:20.426Z,96414.77
2018-09-27T20:24:49.172Z,96412.39
2018-09-27T20:27:18.040Z,96402.72
2018-09-27T20:29:46.728Z,96402.27
2018-09-27T20:32:15.561Z,96406.09
2018-09-27T20:34:44.242Z,96401.61
2018-09-27T20:37:12.995Z,96400.11
2018-09-27T20:39:41.665Z,96393.66
2018-09-27T20:42:10.405Z,96397.45
2018-09-27T20:44:39.048Z,96387.28
2018-09-27T20:47:07.836Z,96382.20
2018-09-27T20:49:36.604Z,96390.59
2018-09-27T20:52:05.387Z,96400.27
2018-09-27T20:54:34.099Z,96395.64
2018-09-27T20:57:02.859Z,96394.27
2018-09-27T20:59:31.708Z,96389.94
2018-09-27T21:02:00.396Z,96389.03
2018-09-27T21:04:29.198Z,96396.66
2018-09-27T21:06:57.835Z,96402.89
2018-09-27T21:09:26.464Z,96402.66
2018-09-27T21:11:55.249Z,96405.64
2018-09-27T21:14:23.864Z,96404.03
2018-09-27T21:16:52.542Z,96394.33
2018-09-27T21:19:21.376Z,96398.15
2018-09-27T21:21:50.085Z,96389.08
2018-09-27T21:24:18.852Z,96391.10
2018-09-27T21:26:47.564Z,96385.97
2018-09-27T21:29:16.284Z,96391.18
2018-09-27T21:31:45.087Z,96397.44
2018-09-27T21:34:13.774Z,96386.58
2018-09-27T21:36:42.510Z,96395.73
2018-09-27T21:39:11.226Z,96398.16
2018-09-27T21:41:39.921Z,96397.17
2018-09-27T21:44:08.632Z,96394.55
2018-09-27T21:46:37.363Z,96404.78
2018-09-27T21:49:06.064Z,96405.52
2018-09-27T21:51:34.818Z,96404.17
2018-09-27T21:54:03.533Z,96412.47
2018-09-27T21:56:32.273Z,96398.55
2018-09-27T21:59:00.979Z,96405.84
2018-09-27T22:01:29.703Z,96404.83
2018-09-27T22:03:58.544Z,96410.89
2018-09-27T22:06:27.327Z,96409.48
2018-09-27T22:08:56.008Z,96418.65
2018-09-27T22:11:24.769Z,96405.39
2018-09-27T22:13:53.492Z,96404.20
2018-09-27T22:16:22.168Z,96401.53
2018-09-27T22:18:50.815Z,96408.33
2018-09-27T22:21:19.534Z,96411.50
2018-09-27T22:23:48.267Z,96410.53
2018-09-27T22:26:16.995Z,96411.09
2018-09-27T22:28:45.784Z,96413.38
2018-09-27T22:31:14.551Z,96411.39
2018-09-27T22:33:43.329Z,96401.14
2018-09-27T22:36:12.153Z,96393.43
2018-09-27T22:38:40.800Z,96394.07
2018-09-27T22:41:09.505Z,96395.75
2018-09-27T22:43:38.388Z,96395.81
2018-09-27T22:46:07.227Z,96391.38
2018-09-27T22:48:35.964Z,96390.10
2018-09-27T22:51:04.691Z,96393.73
2018-09-27T22:53:33.475Z,96382.34
2018-09-27T22:56:02.336Z,96388.63
2018-09-27T22:58:31.095Z,96392.08
2018-09-27T23:00:59.810Z,96383.27
2018-09-27T23:03:28.557Z,96385.80
2018-09-27T23:05:57.207Z,96377.50
2018-09-27T23:08:25.911Z,96372.70
2018-09-27T23:10:54.757Z,96372.70
2018-09-27T23:13:23.443Z,96366.69
2018-09-27T23:15:52.260Z,96367.18
2018-09-27T23:18:20.892Z,96368.43
2018-09-27T23:20:49.628Z,96361.70
2018-09-27T23:23:18.263Z,96367.30
2018-09-27T23:25:46.908Z,96361.73
2018-09-27T23:28:15.564Z,96357.17
2018-09-27T23:30:44.371Z,96361.81
2018-09-27T23:33:13.092Z,96359.29
2018-09-27T23:35:41.731Z,96353.30
2018-09-27T23:38:10.372Z,96358.39
2018-09-27T23:40:39.174Z,96353.12
2018-09-27T23:43:07.872Z,96356.16
2018-09-27T23:45:36.541Z,96347.17
2018-09-27T23:48:05.243Z,96336.52
2018-09-27T23:50:34.039Z,96342.84
2018-09-27T23:53:02.811Z,96335.72
2018-09-27T23:55:31.524Z,96331.41
2018-09-27T23:58:00.184Z,96326.58
